createdAt,value
2022-07-29T00:00:21.788Z,60.6810
2022-07-29T00:01:24.067Z,60.9790
2022-07-29T00:02:24.304Z,61.0040
2022-07-29T00:03:26.552Z,60.9020
2022-07-29T00:04:28.924Z,60.8070
2022-07-29T00:05:31.117Z,60.4970
2022-07-29T00:06:33.408Z,60.7050
2022-07-29T00:07:35.687Z,60.7310
2022-07-29T00:08:35.866Z,60.9110
2022-07-29T00:09:51.097Z,61.2420
2022-07-29T00:10:40.472Z,61.2980
2022-07-29T00:11:42.761Z,61.1070
2022-07-29T00:12:45.037Z,61.9580
2022-07-29T00:13:50.909Z,62.2310
2022-07-29T00:14:49.675Z,61.7790
2022-07-29T00:15:49.840Z,61.6410
2022-07-29T00:16:52.274Z,61.5050
2022-07-29T00:17:54.494Z,61.6920
2022-07-29T00:18:54.739Z,62.4620
2022-07-29T00:19:57.017Z,62.5510
2022-07-29T00:20:59.357Z,62.1760
2022-07-29T00:21:59.540Z,62.1340
2022-07-29T00:23:01.890Z,62.4700
2022-07-29T00:24:04.324Z,61.9850
2022-07-29T00:25:06.651Z,61.4560
2022-07-29T00:26:06.846Z,61.1860
2022-07-29T00:27:09.174Z,61.1870
2022-07-29T00:28:11.484Z,61.1070
2022-07-29T00:30:16.195Z,61.0340
2022-07-29T00:31:16.442Z,60.9310
2022-07-29T00:32:18.779Z,61.4650
2022-07-29T00:33:21.158Z,61.4100
2022-07-29T00:34:23.560Z,61.3100
2022-07-29T00:35:23.768Z,61.6280
2022-07-29T00:36:26.183Z,61.7260
2022-07-29T00:37:28.571Z,61.4890
2022-07-29T00:38:30.956Z,61.7990
2022-07-29T00:39:31.217Z,62.1940
2022-07-29T00:40:33.556Z,62.0440
2022-07-29T00:41:35.905Z,62.0240
2022-07-29T00:42:38.245Z,61.8930
2022-07-29T00:43:38.438Z,62.0600
2022-07-29T00:44:40.788Z,61.6760
2022-07-29T00:45:43.083Z,61.4540
2022-07-29T00:46:45.476Z,61.5140
2022-07-29T00:47:47.644Z,61.1310
2022-07-29T00:48:49.973Z,60.9240
2022-07-29T00:49:52.254Z,61.1350
2022-07-29T00:50:52.394Z,61.1420
2022-07-29T00:51:54.725Z,61.4010
2022-07-29T00:52:57.086Z,61.6640
2022-07-29T00:53:59.433Z,61.7450
2022-07-29T00:55:07.992Z,61.4960
2022-07-29T00:56:01.910Z,61.5440
2022-07-29T00:57:04.238Z,61.3230
2022-07-29T00:58:06.564Z,61.0990
2022-07-29T00:59:08.893Z,61.0600
2022-07-29T01:00:11.207Z,60.9540
2022-07-29T01:01:13.590Z,61.9060
2022-07-29T01:02:13.780Z,62.1990
2022-07-29T01:03:16.053Z,62.2300
2022-07-29T01:04:18.766Z,62.5930
2022-07-29T01:05:20.674Z,62.2870
2022-07-29T01:06:22.978Z,61.9820
2022-07-29T01:07:23.164Z,62.0540
2022-07-29T01:08:25.466Z,61.6380
2022-07-29T01:09:34.481Z,61.1740
2022-07-29T01:10:30.114Z,60.9540
2022-07-29T01:11:32.409Z,60.8150
2022-07-29T01:12:34.754Z,60.8100
2022-07-29T01:13:34.933Z,61.2170
2022-07-29T01:14:37.278Z,61.2660
2022-07-29T01:15:39.656Z,61.2600
2022-07-29T01:16:42.046Z,61.3050
2022-07-29T01:17:52.743Z,61.1340
2022-07-29T01:18:44.479Z,61.0660
2022-07-29T01:21:15.017Z,61.2100
2022-07-29T01:22:15.103Z,61.2470
2022-07-29T01:23:17.359Z,61.2480
2022-07-29T01:24:19.611Z,61.3760
2022-07-29T01:25:21.829Z,61.4770
2022-07-29T01:26:24.160Z,62.1050
2022-07-29T01:27:26.415Z,62.3030
2022-07-29T01:28:28.705Z,62.0950
2022-07-29T01:29:36.255Z,61.8040
2022-07-29T01:30:31.150Z,61.7870
2022-07-29T01:31:33.469Z,61.8170
2022-07-29T01:32:35.731Z,61.6700
2022-07-29T01:33:38.036Z,61.8470
2022-07-29T01:34:40.332Z,61.8930
2022-07-29T01:35:42.620Z,61.4020
2022-07-29T01:36:44.947Z,61.2540
2022-07-29T01:37:45.019Z,61.5260
2022-07-29T01:38:47.342Z,61.8420
2022-07-29T01:39:49.604Z,62.0920
2022-07-29T01:40:51.847Z,61.9920
2022-07-29T01:41:54.193Z,61.3570
2022-07-29T01:42:56.454Z,61.2580
2022-07-29T01:43:58.694Z,61.2710
2022-07-29T01:45:00.955Z,61.4440
2022-07-29T01:46:01.091Z,61.3020
2022-07-29T01:47:03.461Z,61.1410
2022-07-29T01:48:05.655Z,61.0740
2022-07-29T01:49:08.055Z,60.8830
2022-07-29T01:50:10.244Z,60.9980
2022-07-29T01:51:12.526Z,60.9030
2022-07-29T01:52:14.858Z,60.8810
2022-07-29T01:53:14.943Z,60.8920
2022-07-29T01:54:17.704Z,60.8080
2022-07-29T01:55:19.425Z,60.5710
2022-07-29T01:56:21.727Z,60.6440
2022-07-29T01:57:23.963Z,60.9180
2022-07-29T01:58:26.171Z,61.0730
2022-07-29T01:59:28.431Z,61.2210
2022-07-29T02:00:28.582Z,61.3520
2022-07-29T02:01:30.943Z,61.3860
2022-07-29T02:02:33.188Z,61.2470
2022-07-29T02:03:35.457Z,60.7950
2022-07-29T02:04:37.822Z,60.6350
2022-07-29T02:05:40.045Z,60.6150
2022-07-29T02:06:42.341Z,60.7750
2022-07-29T02:07:42.532Z,60.8780
2022-07-29T02:08:44.804Z,61.0820
2022-07-29T02:09:47.118Z,61.0630
2022-07-29T02:10:49.446Z,61.1220
2022-07-29T02:11:51.737Z,61.2460
2022-07-29T02:12:54.078Z,61.2640
2022-07-29T02:13:54.195Z,61.4860
2022-07-29T02:14:56.503Z,61.4060
2022-07-29T02:15:58.898Z,61.3070
2022-07-29T02:17:01.206Z,61.3490
2022-07-29T02:18:03.538Z,61.7730
2022-07-29T02:19:05.834Z,61.8310
2022-07-29T02:20:06.046Z,61.7180
2022-07-29T02:21:15.114Z,61.8900
2022-07-29T02:22:10.782Z,61.9160
2022-07-29T02:23:13.168Z,61.4240
2022-07-29T02:24:15.846Z,61.5550
2022-07-29T02:25:15.614Z,61.7160
2022-07-29T02:26:17.918Z,61.5250
2022-07-29T02:27:20.197Z,61.5720
2022-07-29T02:28:22.541Z,61.3450
2022-07-29T02:29:24.819Z,61.1700
2022-07-29T02:30:27.177Z,61.0160
2022-07-29T02:31:29.526Z,60.7720
2022-07-29T02:32:31.862Z,60.9780
2022-07-29T02:33:34.242Z,61.0440
2022-07-29T02:34:36.587Z,61.1810
2022-07-29T02:35:36.802Z,61.3540
2022-07-29T02:36:39.165Z,61.4380
2022-07-29T02:37:41.539Z,61.8270
2022-07-29T02:38:43.957Z,62.3000
2022-07-29T02:39:44.144Z,62.2460
2022-07-29T02:40:46.526Z,62.7390
2022-07-29T02:41:48.914Z,62.6560
2022-07-29T02:42:51.257Z,62.4500
2022-07-29T02:43:53.648Z,62.4520
2022-07-29T02:44:53.809Z,62.3950
2022-07-29T02:45:56.186Z,62.1760
2022-07-29T02:46:58.614Z,61.9530
2022-07-29T02:48:00.903Z,61.9980
2022-07-29T02:49:03.421Z,61.7800
2022-07-29T02:50:03.459Z,61.5290
2022-07-29T02:51:05.814Z,61.5520
2022-07-29T02:52:08.168Z,61.1760
2022-07-29T02:53:10.515Z,61.2980
2022-07-29T02:54:13.433Z,61.4120
2022-07-29T02:55:13.083Z,61.6210
2022-07-29T02:56:15.449Z,61.5980
2022-07-29T02:57:17.791Z,61.4720
2022-07-29T02:58:20.152Z,61.6410
2022-07-29T02:59:20.396Z,61.8600
2022-07-29T03:00:22.707Z,61.8230
2022-07-29T03:01:25.154Z,61.7770
2022-07-29T03:02:27.366Z,61.9900
2022-07-29T03:03:29.625Z,61.9400
2022-07-29T03:04:31.957Z,61.6530
2022-07-29T03:05:32.015Z,61.6260
2022-07-29T03:06:38.388Z,61.6610
2022-07-29T03:07:36.531Z,61.4670
2022-07-29T03:08:38.797Z,61.6040
2022-07-29T03:09:41.103Z,61.8830
2022-07-29T03:10:43.350Z,62.0370
2022-07-29T03:11:49.652Z,62.0010
2022-07-29T03:12:47.902Z,62.6030
2022-07-29T03:13:48.041Z,62.3970
2022-07-29T03:14:50.385Z,62.0870
2022-07-29T03:15:52.721Z,62.1130
2022-07-29T03:16:54.993Z,61.7590
2022-07-29T03:17:57.317Z,61.8600
2022-07-29T03:18:59.635Z,61.9310
2022-07-29T03:19:59.876Z,61.9770
2022-07-29T03:21:02.234Z,61.6020
2022-07-29T03:22:04.601Z,61.6400
2022-07-29T03:23:06.960Z,61.8760
2022-07-29T03:24:10.844Z,62.4250
2022-07-29T03:25:09.466Z,62.5120
2022-07-29T03:26:11.771Z,62.5880
2022-07-29T03:27:14.121Z,62.7680
2022-07-29T03:28:16.482Z,63.5870
2022-07-29T03:29:18.864Z,63.6640
2022-07-29T03:30:22.281Z,63.9630
2022-07-29T03:31:21.509Z,63.8940
2022-07-29T03:32:25.326Z,63.8650
2022-07-29T03:33:26.130Z,63.2390
2022-07-29T03:34:28.500Z,63.6440
2022-07-29T03:35:28.748Z,63.9090
2022-07-29T03:36:31.085Z,64.1490
2022-07-29T03:37:33.426Z,64.0390
2022-07-29T03:38:35.789Z,63.8570
2022-07-29T03:39:36.013Z,63.7740
2022-07-29T03:40:38.378Z,63.5370
2022-07-29T03:41:41.672Z,63.2790
2022-07-29T03:42:43.512Z,62.9020
2022-07-29T03:43:49.084Z,62.5490
2022-07-29T03:44:47.716Z,62.4800
2022-07-29T03:45:50.098Z,62.5950
2022-07-29T03:46:52.437Z,62.6020
2022-07-29T03:47:59.930Z,62.7390
2022-07-29T03:48:55.095Z,63.2060
2022-07-29T03:49:57.399Z,63.2310
2022-07-29T03:50:59.826Z,63.0720
2022-07-29T03:52:02.173Z,62.9190
2022-07-29T03:53:02.441Z,62.7130
2022-07-29T03:54:09.496Z,62.4510
2022-07-29T03:55:07.189Z,62.4370
2022-07-29T03:56:09.575Z,62.2250
2022-07-29T03:57:09.791Z,62.2280
2022-07-29T03:58:12.203Z,62.0970
2022-07-29T03:59:14.630Z,61.9810
2022-07-29T04:00:17.067Z,62.0490
2022-07-29T04:01:17.387Z,62.1980
2022-07-29T04:02:22.877Z,62.1230
2022-07-29T04:03:22.171Z,62.1050
2022-07-29T04:04:24.436Z,61.9790
2022-07-29T04:05:24.618Z,61.3830
2022-07-29T04:06:27.020Z,60.8920
2022-07-29T04:07:29.402Z,60.8070
2022-07-29T04:08:31.784Z,60.7840
2022-07-29T04:09:34.196Z,60.6170
2022-07-29T04:10:35.131Z,60.4500
2022-07-29T04:11:57.158Z,60.6730
2022-07-29T04:13:26.582Z,61.0300
2022-07-29T04:14:28.886Z,60.8320
2022-07-29T04:15:31.992Z,60.4860
2022-07-29T04:16:31.612Z,60.1810
2022-07-29T04:17:33.811Z,59.9290
2022-07-29T04:18:36.130Z,59.9360
2022-07-29T04:19:38.491Z,60.1370
2022-07-29T04:20:38.706Z,60.2130
2022-07-29T04:21:41.093Z,60.2230
2022-07-29T04:22:43.515Z,60.4350
2022-07-29T04:23:47.944Z,60.0770
2022-07-29T04:24:46.094Z,59.7970
2022-07-29T04:25:48.449Z,59.6220
2022-07-29T04:26:50.829Z,59.5460
2022-07-29T04:27:53.195Z,59.8390
2022-07-29T04:28:55.565Z,59.9040
2022-07-29T04:29:56.611Z,59.6070
2022-07-29T04:30:58.343Z,59.3990
2022-07-29T04:32:00.654Z,59.6810
2022-07-29T04:33:03.077Z,59.4850
2022-07-29T04:34:03.307Z,59.1950
2022-07-29T04:35:05.676Z,59.0390
2022-07-29T04:36:08.004Z,59.3100
2022-07-29T04:37:10.323Z,59.4620
2022-07-29T04:38:15.668Z,59.3370
2022-07-29T04:39:12.869Z,59.3370
2022-07-29T04:40:15.238Z,59.3830
2022-07-29T04:41:17.611Z,59.3080
2022-07-29T04:42:19.978Z,59.4390
2022-07-29T04:43:23.167Z,59.7900
2022-07-29T04:44:22.580Z,60.2890
2022-07-29T04:45:24.949Z,60.5620
2022-07-29T04:46:27.377Z,60.3180
2022-07-29T04:47:29.705Z,60.1220
2022-07-29T04:48:29.930Z,60.3030
2022-07-29T04:49:32.326Z,60.5920
2022-07-29T04:50:34.615Z,60.8040
2022-07-29T04:51:36.965Z,60.7790
2022-07-29T04:52:37.171Z,60.3940
2022-07-29T04:53:39.562Z,60.2420
2022-07-29T04:54:41.874Z,59.9980
2022-07-29T04:55:44.230Z,60.0300
2022-07-29T04:56:46.635Z,60.0880
2022-07-29T04:57:46.890Z,60.1340
2022-07-29T04:58:49.294Z,59.9830
2022-07-29T04:59:51.661Z,60.0250
2022-07-29T05:00:54.043Z,59.8970
2022-07-29T05:01:54.386Z,59.8910
2022-07-29T05:02:56.708Z,59.9650
2022-07-29T05:04:00.661Z,60.1560
2022-07-29T05:05:01.464Z,59.9530
2022-07-29T05:06:01.670Z,60.0160
2022-07-29T05:07:04.023Z,59.8340
2022-07-29T05:08:06.369Z,59.5220
2022-07-29T05:09:08.774Z,59.7850
2022-07-29T05:10:11.138Z,60.0010
2022-07-29T05:11:12.653Z,60.0310
2022-07-29T05:12:13.778Z,59.9750
2022-07-29T05:14:12.193Z,60.1480
2022-07-29T05:15:14.470Z,60.1780
2022-07-29T05:16:16.851Z,60.4380
2022-07-29T05:17:19.115Z,60.2550
2022-07-29T05:18:21.454Z,60.1770
2022-07-29T05:19:21.690Z,60.0240
2022-07-29T05:20:24.009Z,60.0290
2022-07-29T05:21:26.362Z,59.9490
2022-07-29T05:22:28.709Z,59.8620
2022-07-29T05:23:31.045Z,59.4640
2022-07-29T05:24:31.283Z,59.3840
2022-07-29T05:25:43.586Z,59.6640
2022-07-29T05:26:35.894Z,59.9440
2022-07-29T05:27:38.233Z,59.9930
2022-07-29T05:28:40.588Z,60.3100
2022-07-29T05:29:45.629Z,60.3410
2022-07-29T05:30:43.095Z,60.0250
2022-07-29T05:31:45.362Z,59.8020
2022-07-29T05:32:47.652Z,59.7930
2022-07-29T05:33:49.972Z,59.4420
2022-07-29T05:34:52.340Z,59.1510
2022-07-29T05:35:59.906Z,58.9400
2022-07-29T05:36:54.797Z,58.6520
2022-07-29T05:37:57.132Z,58.4550
2022-07-29T05:38:59.453Z,58.1610
2022-07-29T05:39:59.654Z,58.0520
2022-07-29T05:41:01.949Z,57.9320
2022-07-29T05:42:04.264Z,57.8240
2022-07-29T05:43:04.441Z,57.7430
2022-07-29T05:44:06.754Z,57.4120
2022-07-29T05:45:09.093Z,57.1610
2022-07-29T05:46:11.348Z,57.2320
2022-07-29T05:47:13.621Z,57.0410
2022-07-29T05:48:15.886Z,56.9600
2022-07-29T05:49:23.062Z,57.0460
2022-07-29T05:50:20.432Z,56.9540
2022-07-29T05:51:22.688Z,57.0380
2022-07-29T05:52:24.960Z,56.8650
2022-07-29T05:53:27.219Z,56.9310
2022-07-29T05:54:29.484Z,56.8170
2022-07-29T05:55:31.985Z,56.8720
2022-07-29T05:56:33.985Z,56.8040
2022-07-29T05:57:36.222Z,56.7310
2022-07-29T05:58:36.379Z,56.7000
2022-07-29T05:59:38.676Z,56.5880
2022-07-29T06:00:41.160Z,56.5940
2022-07-29T06:01:43.197Z,56.5940
2022-07-29T06:02:45.392Z,56.4950
2022-07-29T06:03:47.663Z,56.3940
2022-07-29T06:04:50.024Z,56.3850
2022-07-29T06:05:52.659Z,56.2750
2022-07-29T06:06:52.414Z,56.1900
2022-07-29T06:07:54.668Z,56.2130
2022-07-29T06:08:56.937Z,56.2850
2022-07-29T06:09:59.203Z,56.2560
2022-07-29T06:11:01.520Z,56.1780
2022-07-29T06:12:03.765Z,56.1590
2022-07-29T06:13:06.071Z,56.0020
2022-07-29T06:14:06.211Z,55.9840
2022-07-29T06:15:08.479Z,55.9670
2022-07-29T06:16:10.876Z,55.7600
2022-07-29T06:17:13.009Z,55.8440
2022-07-29T06:18:15.300Z,55.7750
2022-07-29T06:19:17.575Z,55.8650
2022-07-29T06:20:19.895Z,55.7810
2022-07-29T06:21:22.211Z,55.8130
2022-07-29T06:22:24.495Z,55.5780
2022-07-29T06:23:26.800Z,55.6970
2022-07-29T06:24:29.136Z,55.5700
2022-07-29T06:25:31.431Z,55.4850
2022-07-29T06:26:37.804Z,55.3900
2022-07-29T06:27:36.068Z,55.7600
2022-07-29T06:28:38.372Z,55.4450
2022-07-29T06:29:40.689Z,55.3950
2022-07-29T06:30:40.921Z,55.4130
2022-07-29T06:31:43.211Z,55.4330
2022-07-29T06:32:45.500Z,55.3290
2022-07-29T06:33:47.846Z,55.2890
2022-07-29T06:34:50.162Z,55.1800
2022-07-29T06:35:53.579Z,55.1610
2022-07-29T06:36:52.674Z,55.0950
2022-07-29T06:37:55.281Z,55.2830
2022-07-29T06:38:57.316Z,55.2050
2022-07-29T06:39:59.767Z,55.3660
2022-07-29T06:41:02.067Z,55.1250
2022-07-29T06:42:02.231Z,54.9360
2022-07-29T06:43:04.489Z,55.2620
2022-07-29T06:44:06.792Z,55.2170
2022-07-29T06:45:09.496Z,55.0280
2022-07-29T06:46:11.456Z,55.1540
2022-07-29T06:47:13.752Z,55.1670
2022-07-29T06:48:13.898Z,55.1770
2022-07-29T06:49:16.223Z,55.3440
2022-07-29T06:50:18.471Z,55.0820
2022-07-29T06:51:22.283Z,55.1820
2022-07-29T06:52:23.156Z,55.2910
2022-07-29T06:53:25.437Z,55.0800
2022-07-29T06:54:27.773Z,55.0280
2022-07-29T06:55:27.955Z,55.1710
2022-07-29T06:56:30.292Z,55.0930
2022-07-29T06:57:32.652Z,55.2750
2022-07-29T06:58:35.021Z,55.1710
2022-07-29T06:59:35.973Z,55.1690
2022-07-29T07:00:37.466Z,55.1770
2022-07-29T07:01:39.948Z,55.2500
2022-07-29T07:02:42.222Z,55.1520
2022-07-29T07:03:44.456Z,55.0190
2022-07-29T07:04:46.754Z,55.1290
2022-07-29T07:05:46.935Z,55.3050
2022-07-29T07:06:49.250Z,55.2860
2022-07-29T07:07:51.602Z,55.0380
2022-07-29T07:08:53.921Z,55.2670
2022-07-29T07:09:56.265Z,55.2200
2022-07-29T07:10:56.453Z,55.1760
2022-07-29T07:11:58.786Z,55.1830
2022-07-29T07:13:01.368Z,55.2610
2022-07-29T07:14:04.293Z,55.4110
2022-07-29T07:15:05.751Z,55.2740
2022-07-29T07:16:08.085Z,55.2810
2022-07-29T07:17:08.335Z,55.0740
2022-07-29T07:18:10.847Z,55.2260
2022-07-29T07:19:12.883Z,55.4240
2022-07-29T07:20:15.212Z,55.4890
2022-07-29T07:22:17.813Z,55.5990
2022-07-29T07:23:20.011Z,55.3820
2022-07-29T07:24:22.259Z,55.3660
2022-07-29T07:25:22.383Z,55.4120
2022-07-29T07:26:24.645Z,55.4260
2022-07-29T07:27:26.873Z,55.3010
2022-07-29T07:28:29.357Z,55.7150
2022-07-29T07:29:31.381Z,55.6350
2022-07-29T07:30:33.653Z,55.5430
2022-07-29T07:31:35.913Z,55.5030
2022-07-29T07:32:38.036Z,55.3870
2022-07-29T07:33:40.509Z,55.8950
2022-07-29T07:34:42.418Z,55.8720
2022-07-29T07:35:44.608Z,55.9540
2022-07-29T07:36:46.833Z,56.1300
2022-07-29T07:37:49.075Z,56.1590
2022-07-29T07:38:49.169Z,56.1300
2022-07-29T07:39:51.348Z,56.1970
2022-07-29T07:40:53.559Z,56.3000
2022-07-29T07:41:55.772Z,56.3290
2022-07-29T07:42:57.981Z,56.3600
2022-07-29T07:44:00.304Z,56.1310
2022-07-29T07:45:13.621Z,56.2330
2022-07-29T07:46:04.920Z,56.2520
2022-07-29T07:47:12.275Z,56.3050
2022-07-29T07:48:07.299Z,56.4160
2022-07-29T07:49:09.626Z,56.4080
2022-07-29T07:50:16.553Z,56.3360
2022-07-29T07:51:14.014Z,56.3420
2022-07-29T07:52:16.243Z,56.2240
2022-07-29T07:53:18.498Z,56.2900
2022-07-29T07:54:21.135Z,56.3550
2022-07-29T07:55:23.146Z,56.2410
2022-07-29T07:56:25.467Z,56.3410
2022-07-29T07:57:27.803Z,56.0240
2022-07-29T07:58:30.112Z,56.0300
2022-07-29T07:59:32.419Z,56.0420
2022-07-29T08:00:34.713Z,56.0230
2022-07-29T08:01:47.612Z,56.2310
2022-07-29T08:02:37.276Z,56.1920
2022-07-29T08:03:39.589Z,56.2360
2022-07-29T08:04:41.975Z,56.2890
2022-07-29T08:05:44.322Z,56.2460
2022-07-29T08:06:44.538Z,56.3810
2022-07-29T08:07:46.934Z,56.3290
2022-07-29T08:08:49.268Z,56.6720
2022-07-29T08:09:51.657Z,56.8860
2022-07-29T08:10:53.990Z,56.9820
2022-07-29T08:11:54.215Z,56.8340
2022-07-29T08:12:56.585Z,56.9800
2022-07-29T08:13:58.956Z,57.2780
2022-07-29T08:15:01.345Z,57.3820
2022-07-29T08:16:01.603Z,57.2430
2022-07-29T08:17:03.772Z,57.4570
2022-07-29T08:18:08.726Z,57.5700
2022-07-29T08:19:08.398Z,57.4540
2022-07-29T08:20:10.735Z,57.3580
2022-07-29T08:21:10.926Z,56.9580
2022-07-29T08:22:11.111Z,56.6700
2022-07-29T08:23:13.412Z,57.1500
2022-07-29T08:24:15.753Z,57.1640
2022-07-29T08:25:18.145Z,57.0560
2022-07-29T08:26:20.450Z,56.9530
2022-07-29T08:27:42.015Z,56.7980
2022-07-29T08:28:25.748Z,56.6930
2022-07-29T08:29:25.329Z,56.4760
2022-07-29T08:30:27.689Z,56.7790
2022-07-29T08:31:30.031Z,56.8580
2022-07-29T08:32:52.753Z,56.9590
2022-07-29T08:33:32.480Z,56.8320
2022-07-29T08:34:34.802Z,56.5280
2022-07-29T08:35:36.532Z,56.4640
2022-07-29T08:36:37.354Z,56.8890
2022-07-29T08:37:39.734Z,56.9900
2022-07-29T08:38:42.057Z,57.1380
2022-07-29T08:39:42.267Z,57.1440
2022-07-29T08:40:44.660Z,57.2420
2022-07-29T08:42:01.864Z,57.2660
2022-07-29T08:42:49.269Z,57.2980
2022-07-29T08:43:51.571Z,57.1810
2022-07-29T08:44:51.721Z,57.3600
2022-07-29T08:45:54.117Z,57.2230
2022-07-29T08:46:56.341Z,57.2070
2022-07-29T08:47:56.491Z,57.1350
2022-07-29T08:48:58.846Z,57.2080
2022-07-29T08:50:01.071Z,57.3530
2022-07-29T08:51:04.427Z,57.5540
2022-07-29T08:52:05.596Z,57.6570
2022-07-29T08:53:07.869Z,57.7660
2022-07-29T08:54:10.167Z,57.6760
2022-07-29T08:55:10.311Z,57.9370
2022-07-29T08:56:12.645Z,58.0090
2022-07-29T08:57:14.890Z,58.1570
2022-07-29T08:58:17.193Z,58.2200
2022-07-29T08:59:19.486Z,58.1380
2022-07-29T09:00:21.789Z,58.1720
2022-07-29T09:01:35.212Z,58.1780
2022-07-29T09:02:24.218Z,58.1270
2022-07-29T09:03:26.746Z,58.0480
2022-07-29T09:04:28.789Z,58.6620
2022-07-29T09:05:31.062Z,58.0190
2022-07-29T09:06:33.361Z,57.9280
2022-07-29T09:07:35.620Z,57.8500
2022-07-29T09:08:37.897Z,57.6970
2022-07-29T09:09:38.021Z,57.9000
2022-07-29T09:10:40.277Z,57.9380
2022-07-29T09:11:42.583Z,58.1940
2022-07-29T09:12:44.840Z,58.4140
2022-07-29T09:13:47.089Z,57.8220
2022-07-29T09:14:49.316Z,58.4040
2022-07-29T09:15:51.563Z,58.2480
2022-07-29T09:16:54.333Z,58.4990
2022-07-29T09:17:53.969Z,57.6240
2022-07-29T09:18:54.108Z,57.5320
2022-07-29T09:19:56.404Z,57.8490
2022-07-29T09:20:58.666Z,57.8740
2022-07-29T09:22:02.992Z,57.9920
2022-07-29T09:23:03.220Z,58.2550
2022-07-29T09:24:05.492Z,58.4860
2022-07-29T09:25:05.627Z,58.6400
2022-07-29T09:26:07.843Z,58.8590
2022-07-29T09:27:10.115Z,58.9880
2022-07-29T09:28:12.320Z,58.7720
2022-07-29T09:29:14.578Z,58.6280
2022-07-29T09:30:31.412Z,58.6520
2022-07-29T09:31:19.193Z,58.7970
2022-07-29T09:32:21.447Z,58.7190
2022-07-29T09:33:23.676Z,58.9710
2022-07-29T09:34:25.898Z,59.0340
2022-07-29T09:35:25.988Z,58.9850
2022-07-29T09:36:28.257Z,58.7500
2022-07-29T09:37:30.581Z,58.7890
2022-07-29T09:38:32.851Z,58.7470
2022-07-29T09:39:35.139Z,58.7390
2022-07-29T09:40:37.434Z,58.7260
2022-07-29T09:41:39.752Z,58.6040
2022-07-29T09:42:42.024Z,58.5930
2022-07-29T09:43:42.121Z,58.5310
2022-07-29T09:44:44.434Z,58.7330
2022-07-29T09:45:46.744Z,58.8120
2022-07-29T09:46:49.186Z,58.4710
2022-07-29T09:47:51.372Z,58.5930
2022-07-29T09:48:53.665Z,58.3120
2022-07-29T09:49:53.799Z,58.5040
2022-07-29T09:50:56.087Z,58.4780
2022-07-29T09:51:58.388Z,58.4360
2022-07-29T09:53:00.798Z,58.4400
2022-07-29T09:54:02.998Z,58.3180
2022-07-29T09:55:05.282Z,58.2460
2022-07-29T09:56:05.345Z,58.1600
2022-07-29T09:57:07.601Z,58.5960
2022-07-29T09:58:09.907Z,58.4980
2022-07-29T09:59:12.069Z,58.3450
2022-07-29T10:00:14.336Z,58.4590
2022-07-29T10:01:16.672Z,58.2570
2022-07-29T10:02:22.745Z,58.2200
2022-07-29T10:03:21.352Z,58.0400
2022-07-29T10:04:23.418Z,57.9980
2022-07-29T10:05:23.545Z,57.8780
2022-07-29T10:06:25.794Z,57.5870
2022-07-29T10:07:28.071Z,57.8300
2022-07-29T10:08:30.363Z,57.5990
2022-07-29T10:09:32.617Z,57.3830
2022-07-29T10:10:34.897Z,57.3670
2022-07-29T10:11:49.878Z,57.7010
2022-07-29T10:12:39.404Z,57.7260
2022-07-29T10:13:41.671Z,57.6230
2022-07-29T10:14:41.794Z,57.9140
2022-07-29T10:15:44.065Z,57.8950
2022-07-29T10:16:46.470Z,57.7540
2022-07-29T10:17:48.620Z,57.4400
2022-07-29T10:18:50.872Z,57.5540
2022-07-29T10:19:53.109Z,57.5430
2022-07-29T10:20:53.226Z,57.3660
2022-07-29T10:21:58.133Z,57.3320
2022-07-29T10:22:57.772Z,57.3440
2022-07-29T10:24:01.503Z,57.2550
2022-07-29T10:25:02.250Z,56.9260
2022-07-29T10:26:04.507Z,57.0780
2022-07-29T10:27:06.738Z,56.8100
2022-07-29T10:28:11.231Z,56.6900
2022-07-29T10:29:09.121Z,56.6560
2022-07-29T10:30:11.328Z,56.6570
2022-07-29T10:31:13.645Z,56.4710
2022-07-29T10:32:15.836Z,56.4560
2022-07-29T10:33:18.094Z,56.5720
2022-07-29T10:34:20.388Z,56.5320
2022-07-29T10:35:22.617Z,56.3660
2022-07-29T10:36:24.873Z,56.4130
2022-07-29T10:37:27.119Z,56.4360
2022-07-29T10:38:27.233Z,56.2200
2022-07-29T10:39:41.858Z,56.4500
2022-07-29T10:40:29.140Z,56.5990
2022-07-29T10:41:36.222Z,56.5460
2022-07-29T10:42:34.837Z,56.5050
2022-07-29T10:43:36.304Z,56.4800
2022-07-29T10:44:38.597Z,56.4890
2022-07-29T10:45:38.643Z,56.3420
2022-07-29T10:46:41.262Z,56.1910
2022-07-29T10:47:43.168Z,56.2720
2022-07-29T10:48:45.462Z,56.1930
2022-07-29T10:49:47.740Z,56.2530
2022-07-29T10:50:50.001Z,56.2660
2022-07-29T10:51:52.280Z,56.2510
2022-07-29T10:52:54.566Z,56.1590
2022-07-29T10:53:54.704Z,56.1470
2022-07-29T10:54:56.963Z,56.1830
2022-07-29T10:55:59.162Z,56.1280
2022-07-29T10:57:01.374Z,56.1830
2022-07-29T10:58:03.614Z,56.2620
2022-07-29T10:59:05.832Z,56.1640
2022-07-29T11:00:08.042Z,56.1640
2022-07-29T11:01:10.176Z,56.1640
2022-07-29T11:02:36.453Z,56.0930
2022-07-29T11:03:14.643Z,56.1770
2022-07-29T11:04:16.803Z,56.1580
2022-07-29T11:05:19.035Z,56.2180
2022-07-29T11:06:26.772Z,56.1770
2022-07-29T11:07:23.435Z,56.1770
2022-07-29T11:08:26.314Z,56.1970
2022-07-29T11:09:37.431Z,56.2030
2022-07-29T11:10:31.213Z,56.2120
2022-07-29T11:11:30.363Z,56.1900
2022-07-29T11:12:32.648Z,56.0820
2022-07-29T11:13:37.284Z,55.9780
2022-07-29T11:14:35.137Z,56.0250
2022-07-29T11:15:37.285Z,55.9910
2022-07-29T11:16:39.495Z,56.0340
2022-07-29T11:17:51.929Z,56.0320
2022-07-29T11:18:43.873Z,55.9890
2022-07-29T11:19:51.132Z,55.9850
2022-07-29T11:20:49.865Z,55.7200
2022-07-29T11:21:55.145Z,55.9190
2022-07-29T11:22:52.656Z,56.0450
2022-07-29T11:23:54.800Z,56.0450
2022-07-29T11:24:56.961Z,55.9860
2022-07-29T11:25:59.143Z,55.9790
2022-07-29T11:27:01.739Z,55.9070
2022-07-29T11:28:03.408Z,55.7310
2022-07-29T11:29:05.649Z,55.6990
2022-07-29T11:30:07.905Z,55.7500
2022-07-29T11:31:10.133Z,55.6640
2022-07-29T11:32:18.157Z,55.4980
2022-07-29T11:33:14.628Z,55.6270
2022-07-29T11:34:14.731Z,55.1900
2022-07-29T11:35:18.672Z,55.4770
2022-07-29T11:36:19.155Z,55.0620
2022-07-29T11:37:28.008Z,55.2550
2022-07-29T11:38:23.751Z,55.1890
2022-07-29T11:39:25.887Z,55.1430
2022-07-29T11:40:28.147Z,55.2080
2022-07-29T11:41:30.436Z,54.9670
2022-07-29T11:42:34.338Z,55.0270
2022-07-29T11:43:32.714Z,54.7920
2022-07-29T11:44:34.907Z,54.8560
2022-07-29T11:45:41.477Z,54.9700
2022-07-29T11:46:37.275Z,54.8630
2022-07-29T11:47:39.725Z,54.9560
2022-07-29T11:48:41.751Z,54.7320
2022-07-29T11:49:44.606Z,54.4750
2022-07-29T11:50:44.705Z,54.4500
2022-07-29T11:51:48.742Z,54.3450
2022-07-29T11:52:49.755Z,54.3190
2022-07-29T11:53:48.637Z,54.2730
2022-07-29T11:55:00.544Z,54.0560
2022-07-29T11:55:53.105Z,53.9320
2022-07-29T11:56:55.313Z,53.9370
2022-07-29T11:58:03.745Z,53.9620
2022-07-29T11:58:57.573Z,53.8150
2022-07-29T12:00:04.610Z,53.5990
2022-07-29T12:01:04.150Z,53.3830
2022-07-29T12:02:36.611Z,53.2550
2022-07-29T12:03:06.740Z,53.3490
2022-07-29T12:04:09.083Z,53.0560
2022-07-29T12:05:11.336Z,52.6880
2022-07-29T12:06:13.636Z,52.4180
2022-07-29T12:07:15.980Z,52.3760
2022-07-29T12:08:18.260Z,52.5140
2022-07-29T12:09:18.359Z,52.1280
2022-07-29T12:10:29.981Z,52.3310
2022-07-29T12:11:23.668Z,52.3890
2022-07-29T12:12:25.288Z,52.2240
2022-07-29T12:14:04.110Z,52.7030
2022-07-29T12:15:06.282Z,52.4170
2022-07-29T12:16:08.620Z,52.7330
2022-07-29T12:17:10.740Z,52.7010
2022-07-29T12:18:13.035Z,52.5470
2022-07-29T12:19:15.243Z,52.6730
2022-07-29T12:20:17.493Z,52.6600
2022-07-29T12:21:19.697Z,52.6490
2022-07-29T12:22:21.876Z,52.5080
2022-07-29T12:23:24.132Z,52.6680
2022-07-29T12:24:26.602Z,52.8370
2022-07-29T12:25:32.360Z,52.5700
2022-07-29T12:26:30.730Z,52.5240
2022-07-29T12:27:32.927Z,52.6850
2022-07-29T12:28:33.047Z,52.6790
2022-07-29T12:29:35.946Z,52.8670
2022-07-29T12:30:37.418Z,52.5890
2022-07-29T12:31:42.431Z,52.6310
2022-07-29T12:32:41.906Z,52.5720
2022-07-29T12:33:44.179Z,52.6370
2022-07-29T12:34:46.400Z,52.6560